Time;durP1;ratioP1;P1;durP2;ratioP2;P2;SDS_P1;SDS_P2;PMS_P1;PMS_P2;Temp;Humidity;BMP_temperature;BMP_pressure;BME280_temperature;BME280_humidity;BME280_pressure;Samples;Min_cycle;Max_cycle;Signal;HPM_P1;HPM_P2
2023/01/28 00:01:58;;;;;;;;;;;12.20;92.10;;;;;;5040828;28;19921;-69
2023/01/28 00:04:23;;;;;;;;;;;12.10;92.10;;;;;;5053917;28;19921;-68
2023/01/28 00:06:49;;;;;;;;;;;12.30;92.10;;;;;;5061819;28;19969;-70
2023/01/28 00:09:15;;;;;;;;;;;12.10;92.10;;;;;;5075428;28;19920;-69
2023/01/28 00:11:41;;;;;;;;;;;12.10;92.10;;;;;;5055950;28;19925;-70
2023/01/28 00:14:07;;;;;;;;;;;12.00;91.80;;;;;;5017621;28;19928;-70
2023/01/28 00:16:32;;;;;;;;;;;11.90;92.00;;;;;;5039128;28;20390;-69
2023/01/28 00:18:58;;;;;;;;;;;12.00;92.00;;;;;;5060726;28;20033;-68
2023/01/28 00:21:24;;;;;;;;;;;12.20;92.10;;;;;;5017696;28;20059;-69
2023/01/28 00:23:51;;;;;;;;;;;12.30;92.20;;;;;;5035479;28;19921;-69
2023/01/28 00:26:16;;;;;;;;;;;12.00;92.10;;;;;;5018189;28;19921;-69
2023/01/28 00:28:42;;;;;;;;;;;12.10;92.10;;;;;;5052182;28;20294;-69
2023/01/28 00:31:08;;;;;;;;;;;12.40;92.20;;;;;;5053191;28;19920;-69
2023/01/28 00:33:34;;;;;;;;;;;12.20;92.10;;;;;;5037083;28;20024;-70
2023/01/28 00:36:00;;;;;;;;;;;;;;;;;;5035407;28;20028;-69
2023/01/28 00:38:27;;;;;;;;;;;;;;;;;;5035345;28;19975;-69
2023/01/28 00:40:52;;;;;;;;;;;12.00;92.10;;;;;;5035155;28;20275;-69
2023/01/28 00:43:18;;;;;;;;;;;12.20;92.10;;;;;;5035010;28;19928;-70
2023/01/28 00:45:43;;;;;;;;;;;12.00;92.00;;;;;;5045075;28;19989;-70
2023/01/28 00:48:09;;;;;;;;;;;12.30;92.00;;;;;;5054110;28;19920;-68
2023/01/28 00:50:35;;;;;;;;;;;12.10;92.00;;;;;;5053727;28;20015;-69
2023/01/28 00:53:01;;;;;;;;;;;12.00;92.00;;;;;;5053702;28;20443;-69
2023/01/28 00:55:27;;;;;;;;;;;12.10;92.00;;;;;;5037051;28;19921;-69
2023/01/28 00:57:53;;;;;;;;;;;;;;;;;;5052696;28;20282;-69
2023/01/28 01:00:20;;;;;;;;;;;11.90;91.90;;;;;;5040202;28;20401;-69
2023/01/28 01:02:46;;;;;;;;;;;12.10;92.00;;;;;;5043989;28;19920;-70
2023/01/28 01:05:12;;;;;;;;;;;12.30;92.00;;;;;;5039130;28;20316;-70
2023/01/28 01:07:40;;;;;;;;;;;12.20;91.90;;;;;;5043997;28;19921;-69
2023/01/28 01:10:13;;;;;;;;;;;12.00;91.80;;;;;;5036494;28;19960;-69
2023/01/28 01:12:39;;;;;;;;;;;12.20;91.90;;;;;;5052677;28;20010;-70
2023/01/28 01:15:07;;;;;;;;;;;12.10;91.90;;;;;;5035113;28;20340;-70
2023/01/28 01:17:33;;;;;;;;;;;12.10;91.90;;;;;;5021863;28;20018;-68
2023/01/28 01:19:59;;;;;;;;;;;12.20;91.90;;;;;;5043975;28;20387;-67
2023/01/28 01:22:24;;;;;;;;;;;12.00;91.80;;;;;;5026064;28;19921;-69
2023/01/28 01:24:50;;;;;;;;;;;11.90;91.80;;;;;;5051009;28;19924;-65
2023/01/28 01:27:16;;;;;;;;;;;12.00;91.80;;;;;;5038910;28;19921;-70
2023/01/28 01:29:41;;;;;;;;;;;12.10;91.90;;;;;;5074252;28;20401;-69
2023/01/28 01:32:07;;;;;;;;;;;12.10;91.90;;;;;;5073946;28;20332;-69
2023/01/28 01:34:33;;;;;;;;;;;12.00;91.80;;;;;;5068774;28;20390;-70
2023/01/28 01:36:58;;;;;;;;;;;11.90;91.70;;;;;;5046306;28;19928;-70
2023/01/28 01:39:24;;;;;;;;;;;11.90;91.70;;;;;;5037533;28;19944;-70
2023/01/28 01:41:49;;;;;;;;;;;12.10;91.80;;;;;;5056094;28;19920;-70
2023/01/28 01:44:34;;;;;;;;;;;12.00;91.70;;;;;;5050271;28;19921;-69
2023/01/28 01:46:59;;;;;;;;;;;12.00;91.80;;;;;;5046980;28;19920;-70
2023/01/28 01:49:25;;;;;;;;;;;12.20;91.80;;;;;;5054543;28;20408;-68
2023/01/28 01:51:53;;;;;;;;;;;12.10;91.80;;;;;;5035044;28;19927;-66
2023/01/28 01:54:19;;;;;;;;;;;12.20;91.70;;;;;;5052955;28;19971;-69
2023/01/28 01:56:48;;;;;;;;;;;11.90;91.70;;;;;;5053452;28;19920;-68
2023/01/28 01:59:14;;;;;;;;;;;12.10;91.80;;;;;;5054961;28;19927;-68
2023/01/28 02:01:41;;;;;;;;;;;;;;;;;;5035231;28;19924;-68
2023/01/28 02:04:11;;;;;;;;;;;12.10;91.70;;;;;;5037587;28;20087;-68
2023/01/28 02:06:37;;;;;;;;;;;12.30;91.80;;;;;;5032388;28;19921;-67
2023/01/28 02:09:06;;;;;;;;;;;12.20;91.80;;;;;;5032362;28;19921;-68
2023/01/28 02:11:34;;;;;;;;;;;11.90;91.70;;;;;;5034287;28;20405;-66
2023/01/28 02:14:00;;;;;;;;;;;12.10;91.70;;;;;;5030389;28;19966;-67
2023/01/28 02:16:26;;;;;;;;;;;11.90;91.70;;;;;;5026434;28;19921;-68
2023/01/28 02:18:52;;;;;;;;;;;12.10;91.70;;;;;;5035457;28;19963;-67
2023/01/28 02:21:38;;;;;;;;;;;12.20;91.70;;;;;;5035342;28;19971;-67
2023/01/28 02:24:14;;;;;;;;;;;12.00;91.60;;;;;;5012046;28;19927;-68
2023/01/28 02:26:59;;;;;;;;;;;11.90;91.60;;;;;;5034802;28;19968;-68
2023/01/28 02:29:25;;;;;;;;;;;;;;;;;;5047680;28;19947;-66
2023/01/28 02:31:57;;;;;;;;;;;12.00;91.60;;;;;;5053497;28;19921;-68
2023/01/28 02:34:22;;;;;;;;;;;12.10;91.60;;;;;;5022594;28;20307;-68
2023/01/28 02:36:48;;;;;;;;;;;;;;;;;;5034082;28;20011;-66
2023/01/28 02:39:21;;;;;;;;;;;12.30;91.60;;;;;;5015484;28;19975;-67
2023/01/28 02:41:50;;;;;;;;;;;12.00;91.50;;;;;;5011037;28;19936;-67
2023/01/28 02:44:16;;;;;;;;;;;12.30;91.60;;;;;;5051720;28;20290;-69
2023/01/28 02:49:29;;;;;;;;;;;12.00;91.50;;;;;;5034110;28;19928;-67
2023/01/28 02:51:55;;;;;;;;;;;;;;;;;;5041399;28;19928;-68
2023/01/28 02:54:21;;;;;;;;;;;12.20;91.50;;;;;;5037682;28;20394;-67
2023/01/28 02:57:10;;;;;;;;;;;12.10;91.50;;;;;;5048628;28;19921;-68
2023/01/28 02:59:41;;;;;;;;;;;12.00;91.50;;;;;;5053248;28;20403;-67
2023/01/28 03:02:07;;;;;;;;;;;12.00;91.50;;;;;;5032465;28;19928;-67
2023/01/28 03:04:54;;;;;;;;;;;12.00;91.50;;;;;;5035828;28;19925;-67
2023/01/28 03:07:21;;;;;;;;;;;12.20;91.50;;;;;;5019336;28;19921;-67
2023/01/28 03:09:47;;;;;;;;;;;;;;;;;;5033964;28;19920;-68
2023/01/28 03:37:13;;;;;;;;;;;12.10;91.50;;;;;;5040581;28;20294;-68
2023/01/28 03:39:39;;;;;;;;;;;12.20;91.50;;;;;;5034940;28;19975;-69
2023/01/28 03:42:06;;;;;;;;;;;12.00;91.40;;;;;;5035281;28;19937;-68
2023/01/28 03:47:16;;;;;;;;;;;12.20;91.50;;;;;;5037084;28;20291;-68
2023/01/28 03:49:49;;;;;;;;;;;12.10;91.40;;;;;;5036450;28;19928;-68
2023/01/28 03:52:16;;;;;;;;;;;;;;;;;;5029701;28;19921;-66
2023/01/28 03:54:46;;;;;;;;;;;12.10;91.40;;;;;;5020943;28;19927;-67
2023/01/28 03:57:12;;;;;;;;;;;12.00;91.40;;;;;;5018170;28;19924;-68
2023/01/28 03:59:38;;;;;;;;;;;12.10;91.40;;;;;;5022730;28;19936;-68
2023/01/28 04:02:05;;;;;;;;;;;12.30;91.50;;;;;;5026653;28;19933;-68
2023/01/28 04:04:31;;;;;;;;;;;12.30;91.40;;;;;;5015160;28;19960;-69
2023/01/28 04:06:57;;;;;;;;;;;12.00;91.40;;;;;;5030698;28;20441;-69
2023/01/28 04:09:22;;;;;;;;;;;12.00;91.30;;;;;;5024432;28;19928;-69
2023/01/28 04:11:50;;;;;;;;;;;12.10;91.40;;;;;;5025472;28;19925;-67
2023/01/28 04:14:19;;;;;;;;;;;11.90;91.40;;;;;;5016690;28;19926;-68
2023/01/28 04:16:48;;;;;;;;;;;11.80;91.40;;;;;;5016749;28;19976;-68
2023/01/28 04:19:16;;;;;;;;;;;12.10;91.40;;;;;;5028251;28;19921;-69
2023/01/28 04:21:42;;;;;;;;;;;12.10;91.50;;;;;;5017255;28;20336;-68
2023/01/28 04:24:10;;;;;;;;;;;12.20;91.30;;;;;;5038718;28;19975;-66
2023/01/28 04:26:36;;;;;;;;;;;11.90;91.40;;;;;;5036624;28;19944;-68
2023/01/28 04:29:02;;;;;;;;;;;12.00;91.40;;;;;;5016738;28;20366;-69
2023/01/28 04:31:28;;;;;;;;;;;11.90;91.40;;;;;;5032927;28;19967;-70
2023/01/28 04:33:53;;;;;;;;;;;11.90;91.40;;;;;;5034892;28;19921;-69
2023/01/28 04:36:19;;;;;;;;;;;;;;;;;;5035659;28;20356;-69
2023/01/28 04:38:45;;;;;;;;;;;11.90;91.40;;;;;;5019136;28;19922;-70
2023/01/28 04:41:11;;;;;;;;;;;12.10;91.40;;;;;;5015029;28;20305;-69
2023/01/28 04:43:36;;;;;;;;;;;12.00;91.40;;;;;;5023313;28;20067;-67
2023/01/28 04:46:02;;;;;;;;;;;;;;;;;;5017600;28;19956;-66
2023/01/28 04:48:30;;;;;;;;;;;12.10;91.50;;;;;;5027877;28;19921;-67
2023/01/28 04:50:56;;;;;;;;;;;12.10;91.50;;;;;;5033542;28;19921;-68
2023/01/28 04:53:24;;;;;;;;;;;12.00;91.40;;;;;;5029895;28;19935;-67
2023/01/28 04:55:52;;;;;;;;;;;12.20;91.40;;;;;;5044117;28;20349;-66
2023/01/28 04:58:18;;;;;;;;;;;11.90;91.40;;;;;;5017615;28;19920;-67
2023/01/28 05:00:44;;;;;;;;;;;11.90;91.40;;;;;;5033587;28;20359;-67
2023/01/28 05:03:13;;;;;;;;;;;12.00;91.30;;;;;;5041816;28;19925;-67
2023/01/28 05:05:38;;;;;;;;;;;12.20;91.40;;;;;;5051384;28;19948;-69
2023/01/28 05:08:04;;;;;;;;;;;12.10;91.40;;;;;;5031731;28;19921;-68
2023/01/28 05:10:31;;;;;;;;;;;;;;;;;;5039762;28;19928;-68
2023/01/28 05:12:59;;;;;;;;;;;12.00;91.50;;;;;;5070292;28;19921;-67
2023/01/28 05:15:25;;;;;;;;;;;11.80;91.30;;;;;;5074436;28;19928;-66
2023/01/28 05:17:55;;;;;;;;;;;12.00;91.40;;;;;;5034308;28;19925;-68
2023/01/28 05:20:21;;;;;;;;;;;11.90;91.40;;;;;;5048736;28;19921;-69
2023/01/28 05:22:47;;;;;;;;;;;11.90;91.40;;;;;;5055145;28;19916;-67
2023/01/28 05:25:13;;;;;;;;;;;11.90;91.40;;;;;;5036025;28;19921;-68
2023/01/28 05:27:38;;;;;;;;;;;11.90;91.40;;;;;;5036120;28;19921;-66
2023/01/28 05:30:05;;;;;;;;;;;;;;;;;;5019822;28;19924;-68
2023/01/28 05:32:31;;;;;;;;;;;12.00;91.40;;;;;;5046105;28;20030;-69
2023/01/28 05:34:56;;;;;;;;;;;11.70;91.30;;;;;;5034348;28;19964;-69
2023/01/28 05:37:22;;;;;;;;;;;12.10;91.40;;;;;;5016310;28;20012;-68
2023/01/28 05:39:48;;;;;;;;;;;12.10;91.40;;;;;;5034344;28;19968;-70
2023/01/28 05:42:14;;;;;;;;;;;11.90;91.40;;;;;;5045392;28;19982;-69
2023/01/28 05:44:40;;;;;;;;;;;;;;;;;;5054032;28;20442;-66
2023/01/28 05:47:06;;;;;;;;;;;12.00;91.50;;;;;;5016396;28;19921;-68
2023/01/28 05:49:34;;;;;;;;;;;11.80;91.50;;;;;;5047237;28;19920;-67
2023/01/28 05:52:01;;;;;;;;;;;11.80;91.50;;;;;;5052652;28;20430;-66
2023/01/28 05:54:29;;;;;;;;;;;12.20;91.60;;;;;;5053850;28;19920;-69
2023/01/28 05:56:55;;;;;;;;;;;12.00;91.50;;;;;;5053931;28;19927;-69
2023/01/28 05:59:20;;;;;;;;;;;11.80;91.50;;;;;;5038174;28;20367;-68
2023/01/28 06:01:46;;;;;;;;;;;11.60;91.40;;;;;;5041544;28;20007;-70
2023/01/28 06:04:11;;;;;;;;;;;11.90;91.50;;;;;;5034097;28;19963;-69
2023/01/28 06:06:37;;;;;;;;;;;11.80;91.50;;;;;;5034040;28;19944;-68
2023/01/28 06:09:03;;;;;;;;;;;12.00;91.50;;;;;;5028231;28;20294;-68
2023/01/28 06:11:28;;;;;;;;;;;11.70;91.50;;;;;;5041912;28;19921;-69
2023/01/28 06:13:54;;;;;;;;;;;12.10;91.60;;;;;;5037909;28;20000;-66
2023/01/28 06:16:20;;;;;;;;;;;;;;;;;;5051433;28;19929;-68
2023/01/28 06:18:46;;;;;;;;;;;11.90;91.50;;;;;;5035909;28;20425;-68
2023/01/28 06:21:12;;;;;;;;;;;;;;;;;;5035901;28;20004;-66
2023/01/28 06:23:44;;;;;;;;;;;11.90;91.40;;;;;;5050707;28;19943;-68
2023/01/28 06:26:10;;;;;;;;;;;11.80;91.40;;;;;;5052580;28;20007;-73
2023/01/28 06:28:39;;;;;;;;;;;12.00;91.40;;;;;;5037452;28;19943;-73
2023/01/28 06:31:05;;;;;;;;;;;11.90;91.40;;;;;;5054142;28;20003;-73
2023/01/28 06:33:31;;;;;;;;;;;12.00;91.30;;;;;;5022733;28;20382;-72
2023/01/28 06:35:57;;;;;;;;;;;11.80;91.30;;;;;;5037358;28;19928;-72
2023/01/28 06:38:23;;;;;;;;;;;12.00;91.50;;;;;;5037249;28;19921;-73
2023/01/28 06:40:54;;;;;;;;;;;11.60;91.30;;;;;;5035964;28;19921;-67
2023/01/28 06:43:26;;;;;;;;;;;11.80;91.40;;;;;;5034593;28;19935;-68
2023/01/28 06:45:52;;;;;;;;;;;11.90;91.40;;;;;;5056055;28;19920;-68
2023/01/28 06:48:21;;;;;;;;;;;;;;;;;;5053353;28;19960;-67
2023/01/28 06:50:47;;;;;;;;;;;11.80;91.40;;;;;;5035579;28;19978;-67
2023/01/28 06:53:16;;;;;;;;;;;11.80;91.30;;;;;;5037977;28;19960;-67
2023/01/28 06:55:44;;;;;;;;;;;12.10;91.40;;;;;;5049643;28;19961;-67
2023/01/28 06:58:10;;;;;;;;;;;;;;;;;;5019206;28;19979;-68
2023/01/28 07:00:39;;;;;;;;;;;11.90;91.50;;;;;;5025514;28;19925;-67
2023/01/28 07:03:04;;;;;;;;;;;11.90;91.40;;;;;;5035792;28;19964;-68
2023/01/28 07:05:30;;;;;;;;;;;12.20;91.20;;;;;;5019272;28;19925;-68
2023/01/28 07:07:56;;;;;;;;;;;12.00;91.50;;;;;;5036650;28;19927;-68
2023/01/28 07:10:24;;;;;;;;;;;11.90;91.40;;;;;;5027799;28;20416;-68
2023/01/28 07:12:50;;;;;;;;;;;;;;;;;;5021395;28;20302;-68
2023/01/28 07:15:16;;;;;;;;;;;11.60;91.30;;;;;;5036150;28;20307;-68
2023/01/28 07:17:42;;;;;;;;;;;11.80;91.40;;;;;;5046541;28;19920;-67
2023/01/28 07:20:09;;;;;;;;;;;12.10;91.50;;;;;;5055482;28;19916;-66
2023/01/28 07:22:36;;;;;;;;;;;12.00;91.50;;;;;;5039611;28;19975;-68
2023/01/28 07:25:02;;;;;;;;;;;11.90;91.50;;;;;;5051629;28;19921;-68
2023/01/28 07:27:28;;;;;;;;;;;11.90;91.50;;;;;;5068060;28;19927;-68
2023/01/28 07:30:01;;;;;;;;;;;12.00;91.50;;;;;;5058290;28;19921;-67
2023/01/28 07:32:30;;;;;;;;;;;;;;;;;;5057199;28;19920;-67
2023/01/28 07:34:56;;;;;;;;;;;12.10;91.60;;;;;;5038292;28;19956;-68
2023/01/28 07:37:22;;;;;;;;;;;12.10;91.50;;;;;;5035955;28;19944;-68
2023/01/28 07:39:51;;;;;;;;;;;11.80;91.20;;;;;;5061403;28;19924;-68
2023/01/28 07:42:17;;;;;;;;;;;11.90;91.60;;;;;;5037916;28;19921;-69
2023/01/28 07:44:42;;;;;;;;;;;11.80;91.60;;;;;;5056074;28;19927;-69
2023/01/28 07:47:09;;;;;;;;;;;11.70;91.50;;;;;;5054086;28;19935;-68
2023/01/28 07:49:35;;;;;;;;;;;;;;;;;;5054257;28;19968;-66
2023/01/28 07:52:10;;;;;;;;;;;11.90;91.60;;;;;;5034654;28;19932;-68
2023/01/28 07:54:36;;;;;;;;;;;11.80;91.50;;;;;;5051286;28;19944;-70
2023/01/28 07:57:01;;;;;;;;;;;11.80;91.50;;;;;;5033360;28;19921;-69
2023/01/28 07:59:27;;;;;;;;;;;11.90;91.60;;;;;;5015930;28;20382;-70
2023/01/28 08:01:53;;;;;;;;;;;11.70;91.50;;;;;;5014631;28;19927;-70
2023/01/28 08:04:19;;;;;;;;;;;11.80;91.60;;;;;;5022492;28;20007;-73
2023/01/28 08:06:45;;;;;;;;;;;11.70;91.40;;;;;;5021484;28;19921;-72
2023/01/28 08:09:11;;;;;;;;;;;11.80;91.20;;;;;;5019223;28;20012;-71
2023/01/28 08:11:37;;;;;;;;;;;;;;;;;;5016124;28;20016;-69
2023/01/28 08:14:03;;;;;;;;;;;;;;;;;;5031369;28;19921;-69
2023/01/28 08:16:29;;;;;;;;;;;11.90;91.30;;;;;;5034631;28;19921;-71
2023/01/28 08:18:54;;;;;;;;;;;11.90;91.30;;;;;;5033319;28;20367;-70
2023/01/28 08:21:20;;;;;;;;;;;11.80;91.00;;;;;;5034418;28;20028;-68
2023/01/28 08:23:46;;;;;;;;;;;11.80;91.20;;;;;;5031360;28;19928;-69
2023/01/28 08:26:11;;;;;;;;;;;11.80;91.20;;;;;;5034311;28;19917;-69
2023/01/28 08:28:37;;;;;;;;;;;12.00;91.30;;;;;;5034364;28;19928;-69
2023/01/28 08:31:03;;;;;;;;;;;12.00;91.30;;;;;;5022098;28;19922;-68
2023/01/28 08:33:29;;;;;;;;;;;11.80;91.20;;;;;;5032213;28;19974;-69
2023/01/28 08:35:54;;;;;;;;;;;12.00;91.30;;;;;;5050024;28;19927;-69
2023/01/28 08:38:20;;;;;;;;;;;;;;;;;;5035006;28;20298;-70
2023/01/28 08:40:46;;;;;;;;;;;11.80;91.20;;;;;;5049438;28;19921;-68
2023/01/28 08:43:12;;;;;;;;;;;12.20;91.30;;;;;;5050347;28;19921;-70
2023/01/28 08:45:38;;;;;;;;;;;11.90;91.30;;;;;;5033316;28;19921;-69
2023/01/28 08:48:04;;;;;;;;;;;12.00;91.30;;;;;;5034078;28;19940;-70
2023/01/28 08:50:36;;;;;;;;;;;12.20;91.40;;;;;;5034819;28;19925;-70
2023/01/28 08:53:03;;;;;;;;;;;11.70;91.00;;;;;;5047344;28;20341;-69
2023/01/28 08:55:29;;;;;;;;;;;12.00;91.30;;;;;;5053968;28;19921;-69
2023/01/28 08:57:55;;;;;;;;;;;11.90;91.30;;;;;;5053377;28;19924;-70
2023/01/28 09:00:21;;;;;;;;;;;12.10;91.30;;;;;;5051815;28;19920;-70
2023/01/28 09:02:49;;;;;;;;;;;12.10;91.20;;;;;;5041610;28;19944;-69
2023/01/28 09:05:15;;;;;;;;;;;12.00;91.20;;;;;;5031405;28;19927;-69
2023/01/28 09:07:41;;;;;;;;;;;12.10;91.30;;;;;;5034865;28;19921;-69
2023/01/28 09:10:07;;;;;;;;;;;12.20;91.20;;;;;;5035371;28;19921;-69
2023/01/28 09:12:33;;;;;;;;;;;12.10;91.20;;;;;;5016819;28;20328;-71
2023/01/28 09:15:01;;;;;;;;;;;12.30;91.20;;;;;;5037101;28;19921;-68
2023/01/28 09:17:32;;;;;;;;;;;12.30;91.10;;;;;;5048103;28;19920;-68
2023/01/28 09:19:58;;;;;;;;;;;12.60;91.20;;;;;;5034471;28;20067;-68
2023/01/28 09:22:24;;;;;;;;;;;12.40;91.10;;;;;;5034121;28;19983;-68
2023/01/28 09:24:50;;;;;;;;;;;;;;;;;;5033385;28;19925;-70
2023/01/28 09:27:16;;;;;;;;;;;12.10;91.10;;;;;;5046920;28;20363;-70
2023/01/28 09:29:42;;;;;;;;;;;12.40;91.10;;;;;;5053489;28;19975;-70
2023/01/28 09:32:07;;;;;;;;;;;12.20;91.10;;;;;;5053251;28;19920;-69
2023/01/28 09:34:33;;;;;;;;;;;12.50;91.20;;;;;;5054668;28;20011;-70
2023/01/28 09:36:59;;;;;;;;;;;12.40;91.00;;;;;;5053042;28;19947;-70
2023/01/28 09:39:27;;;;;;;;;;;12.30;91.00;;;;;;5053875;28;19925;-69
2023/01/28 09:41:54;;;;;;;;;;;12.40;91.10;;;;;;5052789;28;19962;-70
2023/01/28 09:44:23;;;;;;;;;;;12.70;91.20;;;;;;5053957;28;19978;-70
2023/01/28 09:46:48;;;;;;;;;;;12.60;91.20;;;;;;5052906;28;19967;-69
2023/01/28 10:01:45;;;;;;;7.38;2.80;;;13.00;89.80;;;;;;5090694;27;20774;-61
2023/01/28 10:04:10;;;;;;;6.00;2.70;;;12.90;91.70;;;;;;5088116;28;20055;-61
2023/01/28 10:06:49;;;;;;;6.18;2.67;;;13.00;89.60;;;;;;5072320;28;20123;-61
2023/01/28 10:09:41;;;;;;;6.05;2.65;;;13.00;91.70;;;;;;5052999;28;20048;-61
2023/01/28 10:12:32;;;;;;;6.72;2.53;;;12.80;89.70;;;;;;5086084;28;20051;-60
2023/01/28 10:15:28;;;;;;;6.97;2.95;;;13.00;89.70;;;;;;5070236;28;20064;-60
2023/01/28 10:17:58;;;;;;;8.43;2.60;;;13.10;90.50;;;;;;5089256;28;20044;-60
2023/01/28 10:20:32;;;;;;;4.95;2.55;;;13.00;91.70;;;;;;5089415;28;20374;-60
2023/01/28 10:23:00;;;;;;;6.00;2.55;;;13.20;91.70;;;;;;5069149;28;20045;-63
2023/01/28 10:25:28;;;;;;;7.72;2.80;;;13.00;90.30;;;;;;5052880;28;20102;-63
2023/01/28 10:27:54;;;;;;;6.53;2.70;;;;;;;;;;5072162;28;20044;-60
2023/01/28 10:30:21;;;;;;;6.45;2.75;;;13.10;91.70;;;;;;5090039;28;20080;-60
2023/01/28 10:33:09;;;;;;;8.63;2.42;;;13.30;91.70;;;;;;5088769;28;20040;-60
2023/01/28 10:35:38;;;;;;;4.47;2.58;;;13.20;90.40;;;;;;5087746;28;20060;-62
2023/01/28 10:38:06;;;;;;;7.22;2.65;;;13.30;91.70;;;;;;5070835;28;20117;-60
2023/01/28 10:40:32;;;;;;;6.20;2.60;;;13.20;91.70;;;;;;5063536;28;20059;-61
2023/01/28 10:42:58;;;;;;;5.55;2.35;;;;;;;;;;5069860;28;20049;-60
2023/01/28 10:45:25;;;;;;;6.45;2.60;;;;;;;;;;5069674;28;20045;-60
2023/01/28 10:48:02;;;;;;;6.75;2.65;;;;;;;;;;5081106;28;20089;-60
2023/01/28 10:50:28;;;;;;;6.70;2.80;;;13.60;91.60;;;;;;5088562;28;20052;-60
2023/01/28 10:52:59;;;;;;;10.98;3.08;;;13.60;91.60;;;;;;5057134;28;20398;-72
2023/01/28 10:55:50;;;;;;;9.02;2.55;;;13.20;90.30;;;;;;5084014;28;20045;-62
2023/01/28 10:58:21;;;;;;;8.38;2.60;;;13.50;91.60;;;;;;5069940;28;20083;-66
2023/01/28 11:00:53;;;;;;;8.60;2.60;;;13.50;91.60;;;;;;5084937;28;20402;-76
2023/01/28 11:03:20;;;;;;;7.80;2.70;;;13.50;91.40;;;;;;5268321;22;20046;-67
2023/01/28 11:05:59;;;;;;;10.23;2.88;;;;;;;;;;5031105;28;20394;-64
2023/01/28 11:08:26;;;;;;;6.63;2.58;;;13.50;91.40;;;;;;5036019;28;20045;-68
2023/01/28 11:10:55;;;;;;;8.45;3.00;;;13.50;91.50;;;;;;5035888;28;20045;-66
2023/01/28 11:13:22;;;;;;;9.15;2.60;;;;;;;;;;5018367;28;20380;-65
2023/01/28 11:16:00;;;;;;;10.05;2.90;;;13.50;88.80;;;;;;5017331;28;20042;-64
2023/01/28 11:18:30;;;;;;;9.32;2.60;;;13.50;91.40;;;;;;5016190;28;20042;-64
2023/01/28 11:21:17;;;;;;;5.45;2.50;;;13.60;90.20;;;;;;5009071;28;20084;-64
2023/01/28 11:24:15;;;;;;;8.18;2.72;;;13.60;90.30;;;;;;5018204;28;20088;-64
2023/01/28 11:26:45;;;;;;;8.93;2.78;;;;;;;;;;5035409;28;20057;-65
2023/01/28 11:29:34;;;;;;;7.80;2.58;;;13.40;90.20;;;;;;5018250;28;20082;-64
2023/01/28 11:32:00;;;;;;;5.57;2.50;;;;;;;;;;4996374;28;20057;-66
2023/01/28 11:34:28;;;;;;;7.57;2.83;;;13.50;90.00;;;;;;5014150;28;20034;-65
2023/01/28 11:37:05;;;;;;;5.07;2.40;;;13.40;89.90;;;;;;5033053;28;20398;-66
2023/01/28 11:39:30;;;;;;;7.50;2.45;;;13.50;91.30;;;;;;5001539;28;20454;-65
2023/01/28 11:42:16;;;;;;;6.63;2.40;;;13.80;89.30;;;;;;5017061;28;20088;-64
2023/01/28 11:44:42;;;;;;;7.80;2.60;;;13.40;91.20;;;;;;5016526;28;20049;-65
2023/01/28 11:47:24;;;;;;;9.93;2.67;;;;;;;;;;5016077;28;20037;-65
2023/01/28 11:50:33;;;;;;;7.15;2.58;;;13.60;90.20;;;;;;5014653;28;20125;-65
2023/01/28 11:53:16;;;;;;;9.88;2.47;;;13.50;91.30;;;;;;4990179;28;20046;-65
2023/01/28 11:55:51;;;;;;;8.63;2.47;;;13.50;88.40;;;;;;4993520;28;20368;-67
2023/01/28 11:58:23;;;;;;;8.05;2.58;;;13.70;91.30;;;;;;4991460;28;20061;-66
2023/01/28 12:01:20;;;;;;;5.60;2.28;;;13.30;88.80;;;;;;4993581;28;20038;-65
2023/01/28 12:04:21;;;;;;;4.10;2.15;;;13.50;91.20;;;;;;4957543;28;20058;-65
2023/01/28 12:06:50;;;;;;;9.07;2.42;;;;;;;;;;4961014;28;20066;-65
2023/01/28 12:09:24;;;;;;;7.55;2.40;;;13.70;90.00;;;;;;4976714;28;20050;-65
2023/01/28 12:12:16;;;;;;;6.60;2.25;;;13.70;90.10;;;;;;5009697;28;20389;-64
2023/01/28 12:15:02;;;;;;;10.02;2.83;;;13.60;91.20;;;;;;4965216;28;20042;-69
2023/01/28 12:17:33;;;;;;;6.55;2.22;;;13.20;89.90;;;;;;4975625;28;20054;-65
2023/01/28 12:20:30;;;;;;;9.68;2.65;;;13.50;90.60;;;;;;4993337;28;20097;-65
2023/01/28 12:23:17;;;;;;;5.20;2.40;;;13.50;88.60;;;;;;4990209;28;20146;-66
2023/01/28 12:25:50;;;;;;;6.53;2.83;;;13.50;91.20;;;;;;4997346;28;20115;-69
2023/01/28 12:28:30;;;;;;;5.90;2.38;;;13.50;91.20;;;;;;5030119;28;20049;-68
2023/01/28 12:31:17;;;;;;;7.93;2.97;;;13.60;89.00;;;;;;5016474;28;20045;-66
2023/01/28 12:34:01;;;;;;;4.55;2.30;;;13.70;91.30;;;;;;5033501;28;20394;-66
2023/01/28 12:36:40;;;;;;;4.50;2.28;;;13.70;91.20;;;;;;5016972;28;20049;-66
2023/01/28 12:39:33;;;;;;;7.43;2.35;;;14.00;90.00;;;;;;5011264;28;20050;-65
2023/01/28 12:42:12;;;;;;;4.32;2.60;;;13.70;90.00;;;;;;5017909;28;20053;-66
2023/01/28 12:44:42;;;;;;;5.47;2.40;;;13.70;89.50;;;;;;4981504;28;20054;-69
2023/01/28 12:47:09;;;;;;;3.95;2.13;;;13.80;89.60;;;;;;5000240;28;20057;-65
2023/01/28 12:49:39;;;;;;;6.60;2.70;;;13.80;91.10;;;;;;5033527;28;20129;-65
2023/01/28 12:52:16;;;;;;;8.30;2.67;;;14.00;90.00;;;;;;5033569;28;20045;-65
2023/01/28 12:55:04;;;;;;;6.55;2.55;;;13.80;89.80;;;;;;5034392;28;20129;-65
2023/01/28 12:57:31;;;;;;;10.07;2.72;;;;;;;;;;5006416;28;20045;-65
2023/01/28 13:00:13;;;;;;;8.82;2.58;;;14.00;91.10;;;;;;5033751;28;20398;-65
2023/01/28 13:02:41;;;;;;;6.28;2.50;;;14.00;89.00;;;;;;5032998;28;20482;-65
2023/01/28 13:05:15;;;;;;;9.65;2.47;;;;;;;;;;5009602;28;20125;-67
2023/01/28 13:07:49;;;;;;;5.85;2.50;;;14.00;88.20;;;;;;4999660;28;20402;-65
2023/01/28 13:10:28;;;;;;;9.98;2.75;;;14.00;91.10;;;;;;5032265;28;20494;-64
2023/01/28 13:12:54;;;;;;;7.18;2.30;;;;;;;;;;5027996;28;20095;-66
2023/01/28 13:15:20;;;;;;;6.35;2.72;;;;;;;;;;5012780;28;20145;-65
2023/01/28 13:18:04;;;;;;;6.55;2.58;;;13.60;88.40;;;;;;5014951;28;20124;-65
2023/01/28 13:20:35;;;;;;;5.18;2.70;;;;;;;;;;5013823;28;20136;-65
2023/01/28 13:23:20;;;;;;;5.07;2.45;;;14.00;89.50;;;;;;5031011;28;20106;-65
2023/01/28 13:25:50;;;;;;;6.05;2.30;;;13.90;91.20;;;;;;5013379;28;20081;-65
2023/01/28 14:15:39;;;;;;;6.90;2.63;;;;;;;;;;6187391;22;1573996;-79
2023/01/28 14:18:13;;;;;;;11.13;2.75;;;13.70;89.40;;;;;;6196353;23;20020;-77
2023/01/28 14:20:43;;;;;;;9.95;2.78;;;13.80;89.60;;;;;;6224161;23;20087;-76
2023/01/28 14:23:20;;;;;;;8.45;2.50;;;13.70;88.70;;;;;;6198089;23;20017;-77
2023/01/28 14:26:07;;;;;;;6.65;2.53;;;13.50;90.10;;;;;;6173613;23;20016;-63
2023/01/28 14:29:02;;;;;;;8.00;3.00;;;13.40;91.30;;;;;;6216320;23;20099;-61
2023/01/28 14:31:35;;;;;;;7.05;2.50;;;13.50;88.60;;;;;;6197770;23;20051;-78
2023/01/28 14:34:28;;;;;;;7.78;2.95;;;13.70;90.20;;;;;;6196902;23;20465;-77
2023/01/28 14:36:59;;;;;;;8.63;2.55;;;13.50;89.80;;;;;;6208088;23;20020;-62
2023/01/28 14:39:26;;;;;;;7.07;2.67;;;13.40;90.20;;;;;;6224203;23;20434;-63
2023/01/28 14:41:53;;;;;;;7.20;2.65;;;13.90;90.80;;;;;;6219231;23;20024;-62
2023/01/28 14:44:29;;;;;;;4.78;2.45;;;13.60;90.30;;;;;;6217987;23;20076;-62
2023/01/28 14:47:01;;;;;;;13.02;2.70;;;;;;;;;;6165385;23;20031;-63
2023/01/28 14:49:36;;;;;;;6.60;2.88;;;13.50;90.40;;;;;;6217338;23;20016;-77
2023/01/28 14:52:08;;;;;;;8.98;2.78;;;13.80;91.60;;;;;;6166970;23;20450;-62
2023/01/28 14:55:08;;;;;;;8.60;2.38;;;13.60;88.90;;;;;;6216368;23;20066;-77
2023/01/28 14:57:44;;;;;;;7.28;2.70;;;13.40;88.90;;;;;;6066657;23;20023;-74
2023/01/28 15:00:27;;;;;;;6.90;2.50;;;13.50;90.40;;;;;;6043633;23;20362;-62
2023/01/28 15:02:53;;;;;;;5.70;2.53;;;13.60;91.60;;;;;;6066716;23;20086;-62
2023/01/28 15:05:28;;;;;;;7.03;2.65;;;13.60;91.60;;;;;;6067402;23;20409;-77
2023/01/28 15:07:54;;;;;;;6.43;2.10;;;13.40;90.70;;;;;;6066968;23;20046;-71
2023/01/28 15:10:24;;;;;;;6.13;2.70;;;13.40;90.40;;;;;;6066603;23;20022;-73
2023/01/28 15:12:57;;;;;;;11.95;3.40;;;13.70;91.60;;;;;;6066775;23;20015;-72
2023/01/28 15:15:29;;;;;;;5.17;2.40;;;13.20;90.40;;;;;;6043582;23;20050;-81
2023/01/28 15:18:20;;;;;;;8.25;2.90;;;13.30;90.20;;;;;;6067124;23;20385;-75
2023/01/28 15:20:47;;;;;;;8.98;2.88;;;13.50;90.20;;;;;;6046952;23;20022;-79
2023/01/28 15:23:20;;;;;;;9.98;2.75;;;13.50;90.30;;;;;;6019737;23;20023;-76
2023/01/28 15:25:45;;;;;;;9.63;2.90;;;13.50;91.70;;;;;;6043052;23;20018;-76
2023/01/28 15:28:27;;;;;;;10.55;2.75;;;13.70;89.80;;;;;;6036297;23;20019;-62
2023/01/28 15:30:53;;;;;;;10.55;3.10;;;13.50;91.70;;;;;;6066367;23;20422;-69
2023/01/28 15:33:20;;;;;;;12.95;2.90;;;13.50;91.70;;;;;;6102651;23;20017;-73
2023/01/28 15:35:50;;;;;;;9.00;2.72;;;13.50;92.10;;;;;;6190941;23;20013;-76
2023/01/28 15:38:18;;;;;;;12.82;2.60;;;13.40;90.70;;;;;;6190936;23;20023;-74
2023/01/28 15:40:50;;;;;;;12.38;2.83;;;13.40;90.40;;;;;;6191050;23;20091;-76
2023/01/28 15:43:46;;;;;;;9.93;3.40;;;13.40;90.60;;;;;;6189248;23;20059;-70
2023/01/28 15:46:12;;;;;;;6.15;2.67;;;13.30;90.70;;;;;;6042652;23;20019;-79